Time,TemperatureF,DewpointF,PressureIn,WindDirection,WindDirectionDegrees,WindSpeedMPH,WindSpeedGustMPH,Humidity,HourlyPrecipIn,Conditions,Clouds,dailyrainin,SoftwareType,DateUTC
2013-07-27 00:02:00,74.0,48.0,29.80,ENE,63,4.0,14.0,40,0.00,,,0.00,,2013-07-27 06:02:00,
2013-07-27 00:12:00,75.0,49.0,29.81,ENE,63,1.0,7.0,40,0.00,,,0.00,,2013-07-27 06:12:00,
2013-07-27 00:22:00,75.0,50.0,29.81,ENE,63,1.0,9.0,41,0.00,,,0.00,,2013-07-27 06:22:00,
2013-07-27 00:33:00,75.0,50.0,29.81,ENE,63,1.0,9.0,41,0.00,,,0.00,,2013-07-27 06:33:00,
2013-07-27 00:43:00,75.0,50.0,29.81,ENE,63,1.0,8.0,42,0.00,,,0.00,,2013-07-27 06:43:00,
2013-07-27 00:52:00,74.0,51.0,29.81,ENE,63,0.0,3.0,44,0.00,,,0.00,,2013-07-27 06:52:00,
2013-07-27 01:02:00,74.0,51.0,29.81,ENE,63,0.0,3.0,44,0.00,,,0.00,,2013-07-27 07:02:00,
2013-07-27 01:12:00,74.0,51.0,29.81,ENE,63,1.0,5.0,44,0.00,,,0.00,,2013-07-27 07:12:00,
2013-07-27 01:22:00,72.0,49.0,29.81,ENE,63,0.0,5.0,44,0.00,,,0.00,,2013-07-27 07:22:00,
2013-07-27 01:33:00,72.0,49.0,29.81,ENE,63,0.0,5.0,44,0.00,,,0.00,,2013-07-27 07:33:00,
2013-07-27 01:43:00,69.0,47.0,29.81,ENE,63,0.0,5.0,45,0.00,,,0.00,,2013-07-27 07:43:00,
2013-07-27 01:52:00,69.0,47.0,29.82,ENE,63,0.0,3.0,45,0.00,,,0.00,,2013-07-27 07:52:00,
2013-07-27 02:02:00,69.0,47.0,29.82,ENE,63,0.0,3.0,45,0.00,,,0.00,,2013-07-27 08:02:00,
2013-07-27 02:12:00,69.0,47.0,29.81,ENE,63,0.0,4.0,46,0.00,,,0.00,,2013-07-27 08:12:00,
2013-07-27 02:22:00,69.0,48.0,29.82,ENE,63,0.0,4.0,48,0.00,,,0.00,,2013-07-27 08:22:00,
2013-07-27 02:32:00,69.0,48.0,29.82,ENE,63,0.0,4.0,48,0.00,,,0.00,,2013-07-27 08:32:00,
2013-07-27 02:43:00,69.0,49.0,29.82,ENE,63,2.0,8.0,49,0.00,,,0.00,,2013-07-27 08:43:00,
2013-07-27 02:53:00,69.0,50.0,29.81,ENE,63,2.0,7.0,51,0.00,,,0.00,,2013-07-27 08:53:00,
2013-07-27 03:02:00,69.0,50.0,29.81,ENE,63,2.0,7.0,51,0.00,,,0.00,,2013-07-27 09:02:00,
2013-07-27 03:12:00,68.0,50.0,29.81,ENE,63,3.0,9.0,53,0.00,,,0.00,,2013-07-27 09:12:00,
2013-07-27 03:22:00,68.0,51.0,29.82,NE,34,3.0,9.0,54,0.00,,,0.00,,2013-07-27 09:22:00,
2013-07-27 03:33:00,68.0,51.0,29.82,NE,34,3.0,9.0,54,0.00,,,0.00,,2013-07-27 09:33:00,
2013-07-27 03:44:00,67.0,50.0,29.81,NE,34,5.0,10.0,55,0.00,,,0.00,,2013-07-27 09:44:00,
2013-07-27 03:52:00,67.0,50.0,29.81,NE,34,3.0,6.0,55,0.00,,,0.00,,2013-07-27 09:52:00,
2013-07-27 04:02:00,67.0,50.0,29.81,NE,34,3.0,6.0,55,0.00,,,0.00,,2013-07-27 10:02:00,
2013-07-27 04:12:00,66.0,50.0,29.82,NE,34,1.0,7.0,56,0.00,,,0.00,,2013-07-27 10:12:00,
2013-07-27 04:22:00,66.0,50.0,29.82,NE,34,3.0,9.0,57,0.00,,,0.00,,2013-07-27 10:22:00,
2013-07-27 04:32:00,66.0,50.0,29.82,NE,34,3.0,9.0,57,0.00,,,0.00,,2013-07-27 10:32:00,
2013-07-27 04:43:00,65.0,50.0,29.81,NE,34,3.0,8.0,58,0.00,,,0.00,,2013-07-27 10:43:00,
2013-07-27 04:52:00,65.0,50.0,29.81,NE,34,1.0,9.0,58,0.00,,,0.00,,2013-07-27 10:52:00,
2013-07-27 05:02:00,65.0,50.0,29.81,NE,34,1.0,9.0,58,0.00,,,0.00,,2013-07-27 11:02:00,
2013-07-27 05:12:00,64.0,49.0,29.81,NE,34,2.0,8.0,58,0.00,,,0.00,,2013-07-27 11:12:00,
2013-07-27 05:22:00,64.0,49.0,29.81,NE,34,2.0,8.0,59,0.00,,,0.00,,2013-07-27 11:22:00,
2013-07-27 05:32:00,64.0,49.0,29.81,NE,34,2.0,8.0,59,0.00,,,0.00,,2013-07-27 11:32:00,
2013-07-27 05:44:00,63.0,48.0,29.81,NE,34,1.0,6.0,59,0.00,,,0.00,,2013-07-27 11:44:00,
2013-07-27 05:52:00,63.0,49.0,29.80,NE,34,0.0,5.0,61,0.00,,,0.00,,2013-07-27 11:52:00,
2013-07-27 06:02:00,63.0,49.0,29.80,NE,34,0.0,5.0,61,0.00,,,0.00,,2013-07-27 12:02:00,
2013-07-27 06:12:00,62.0,49.0,29.81,NE,34,1.0,5.0,62,0.00,,,0.00,,2013-07-27 12:12:00,
2013-07-27 06:22:00,62.0,49.0,29.81,NE,34,0.0,3.0,62,0.00,,,0.00,,2013-07-27 12:22:00,
2013-07-27 06:33:00,62.0,49.0,29.81,NE,34,0.0,3.0,62,0.00,,,0.00,,2013-07-27 12:33:00,
2013-07-27 06:43:00,62.0,49.0,29.81,NE,34,1.0,4.0,63,0.00,,,0.00,,2013-07-27 12:43:00,
2013-07-27 06:52:00,62.0,50.0,29.82,NE,34,3.0,8.0,64,0.00,,,0.00,,2013-07-27 12:52:00,
2013-07-27 07:02:00,62.0,50.0,29.82,NE,34,3.0,8.0,64,0.00,,,0.00,,2013-07-27 13:02:00,
2013-07-27 07:12:00,62.0,49.0,29.81,NE,34,2.0,8.0,62,0.00,,,0.00,,2013-07-27 13:12:00,
2013-07-27 07:22:00,62.0,48.0,29.82,NE,34,4.0,9.0,61,0.00,,,0.00,,2013-07-27 13:22:00,
2013-07-27 07:32:00,62.0,48.0,29.82,NE,34,4.0,9.0,61,0.00,,,0.00,,2013-07-27 13:32:00,
2013-07-27 07:44:00,63.0,49.0,29.82,NE,34,1.0,7.0,61,0.00,,,0.00,,2013-07-27 13:44:00,
2013-07-27 07:53:00,64.0,50.0,29.82,NE,34,3.0,7.0,61,0.00,,,0.00,,2013-07-27 13:53:00,
2013-07-27 08:02:00,64.0,50.0,29.82,NE,34,3.0,7.0,61,0.00,,,0.00,,2013-07-27 14:02:00,
2013-07-27 08:12:00,65.0,50.0,29.82,NE,34,2.0,7.0,59,0.00,,,0.00,,2013-07-27 14:12:00,
2013-07-27 08:22:00,66.0,50.0,29.81,NE,34,3.0,7.0,57,0.00,,,0.00,,2013-07-27 14:22:00,
2013-07-27 08:32:00,66.0,50.0,29.81,NE,34,3.0,7.0,57,0.00,,,0.00,,2013-07-27 14:32:00,
2013-07-27 08:44:00,67.0,50.0,29.81,NE,34,1.0,7.0,55,0.00,,,0.00,,2013-07-27 14:44:00,
2013-07-27 08:54:00,68.0,50.0,29.81,NE,34,1.0,6.0,52,0.00,,,0.00,,2013-07-27 14:54:00,
2013-07-27 09:02:00,68.0,50.0,29.81,NE,34,1.0,6.0,52,0.00,,,0.00,,2013-07-27 15:02:00,
2013-07-27 09:12:00,70.0,50.0,29.80,NE,34,1.0,4.0,50,0.00,,,0.00,,2013-07-27 15:12:00,
2013-07-27 09:22:00,71.0,51.0,29.80,NE,34,0.0,6.0,49,0.00,,,0.00,,2013-07-27 15:22:00,
2013-07-27 09:33:00,71.0,51.0,29.80,NE,34,0.0,6.0,49,0.00,,,0.00,,2013-07-27 15:33:00,
2013-07-27 09:44:00,73.0,53.0,29.79,NE,34,0.0,3.0,49,0.00,,,0.00,,2013-07-27 15:44:00,
2013-07-27 09:53:00,75.0,52.0,29.79,NE,34,0.0,3.0,45,0.00,,,0.00,,2013-07-27 15:53:00,
2013-07-27 10:02:00,75.0,52.0,29.79,NE,34,0.0,3.0,45,0.00,,,0.00,,2013-07-27 16:02:00,
2013-07-27 10:12:00,76.0,52.0,29.78,NE,34,0.0,3.0,44,0.00,,,0.00,,2013-07-27 16:12:00,
2013-07-27 10:22:00,76.0,52.0,29.78,NE,34,0.0,5.0,43,0.00,,,0.00,,2013-07-27 16:22:00,
2013-07-27 10:33:00,76.0,52.0,29.78,NE,34,0.0,5.0,43,0.00,,,0.00,,2013-07-27 16:33:00,
2013-07-27 10:43:00,77.0,51.0,29.77,NE,34,0.0,3.0,41,0.00,,,0.00,,2013-07-27 16:43:00,
2013-07-27 10:53:00,79.0,52.0,29.77,NE,34,0.0,3.0,39,0.00,,,0.00,,2013-07-27 16:53:00,
2013-07-27 11:02:00,79.0,52.0,29.77,NE,34,0.0,3.0,39,0.00,,,0.00,,2013-07-27 17:02:00,
2013-07-27 11:12:00,79.0,51.0,29.76,NE,34,2.0,6.0,38,0.00,,,0.00,,2013-07-27 17:12:00,
2013-07-27 11:22:00,80.0,52.0,29.75,NE,34,0.0,5.0,38,0.00,,,0.00,,2013-07-27 17:22:00,
2013-07-27 11:32:00,80.0,52.0,29.75,NE,34,0.0,5.0,38,0.00,,,0.00,,2013-07-27 17:32:00,
2013-07-27 11:43:00,81.0,52.0,29.75,NE,34,0.0,2.0,37,0.00,,,0.00,,2013-07-27 17:43:00,
2013-07-27 11:53:00,80.0,51.0,29.74,NE,34,0.0,4.0,37,0.00,,,0.00,,2013-07-27 17:53:00,
2013-07-27 12:02:00,80.0,51.0,29.74,NE,34,0.0,4.0,37,0.00,,,0.00,,2013-07-27 18:02:00,
2013-07-27 12:12:00,83.0,53.0,29.74,NE,34,0.0,1.0,36,0.00,,,0.00,,2013-07-27 18:12:00,
2013-07-27 12:22:00,84.0,53.0,29.73,NE,34,0.0,2.0,34,0.00,,,0.00,,2013-07-27 18:22:00,
2013-07-27 12:32:00,84.0,53.0,29.73,NE,34,0.0,2.0,34,0.00,,,0.00,,2013-07-27 18:32:00,
2013-07-27 12:42:00,84.0,52.0,29.72,NE,34,1.0,3.0,33,0.00,,,0.00,,2013-07-27 18:42:00,
2013-07-27 12:52:00,84.0,50.0,29.71,NE,34,2.0,5.0,31,0.00,,,0.00,,2013-07-27 18:52:00,
2013-07-27 13:02:00,84.0,50.0,29.71,NE,34,2.0,5.0,31,0.00,,,0.00,,2013-07-27 19:02:00,
2013-07-27 13:12:00,84.0,52.0,29.70,NE,34,1.0,4.0,33,0.00,,,0.00,,2013-07-27 19:12:00,
2013-07-27 13:22:00,84.0,46.0,29.70,NE,34,2.0,4.0,27,0.00,,,0.00,,2013-07-27 19:22:00,
2013-07-27 13:32:00,84.0,46.0,29.70,NE,34,2.0,4.0,27,0.00,,,0.00,,2013-07-27 19:32:00,
2013-07-27 13:43:00,86.0,47.0,29.69,NE,34,1.0,3.0,26,0.00,,,0.00,,2013-07-27 19:43:00,
2013-07-27 13:52:00,86.0,46.0,29.69,NE,34,1.0,4.0,25,0.00,,,0.00,,2013-07-27 19:52:00,
2013-07-27 14:02:00,86.0,46.0,29.69,NE,34,1.0,4.0,25,0.00,,,0.00,,2013-07-27 20:02:00,
2013-07-27 14:12:00,86.0,45.0,29.68,NE,34,1.0,4.0,24,0.00,,,0.00,,2013-07-27 20:12:00,
2013-07-27 14:22:00,86.0,43.0,29.68,NE,34,1.0,4.0,22,0.00,,,0.00,,2013-07-27 20:22:00,
2013-07-27 14:32:00,86.0,43.0,29.68,NE,34,1.0,4.0,22,0.00,,,0.00,,2013-07-27 20:32:00,
2013-07-27 14:43:00,86.0,41.0,29.67,NE,34,0.0,2.0,21,0.00,,,0.00,,2013-07-27 20:43:00,
2013-07-27 14:52:00,86.0,39.0,29.67,NE,34,0.0,3.0,19,0.00,,,0.00,,2013-07-27 20:52:00,
2013-07-27 15:03:00,86.0,39.0,29.67,NE,34,0.0,3.0,19,0.00,,,0.00,,2013-07-27 21:03:00,
2013-07-27 15:12:00,87.0,42.0,29.67,NE,34,0.0,2.0,21,0.00,,,0.00,,2013-07-27 21:12:00,
2013-07-27 15:22:00,87.0,41.0,29.67,NE,34,0.0,2.0,20,0.00,,,0.00,,2013-07-27 21:22:00,
2013-07-27 15:33:00,87.0,41.0,29.67,NE,34,0.0,2.0,20,0.00,,,0.00,,2013-07-27 21:33:00,
2013-07-27 15:42:00,88.0,41.0,29.66,NE,34,0.0,3.0,19,0.00,,,0.00,,2013-07-27 21:42:00,
2013-07-27 15:52:00,88.0,42.0,29.66,NE,34,2.0,5.0,20,0.00,,,0.00,,2013-07-27 21:52:00,
2013-07-27 16:02:00,88.0,42.0,29.66,NE,34,2.0,5.0,20,0.00,,,0.00,,2013-07-27 22:02:00,
2013-07-27 16:12:00,87.0,48.0,29.65,NE,34,4.0,8.0,26,0.00,,,0.00,,2013-07-27 22:12:00,
2013-07-27 16:22:00,86.0,51.0,29.65,NE,34,6.0,8.0,30,0.00,,,0.00,,2013-07-27 22:22:00,
2013-07-27 16:32:00,86.0,51.0,29.65,NE,34,6.0,8.0,30,0.00,,,0.00,,2013-07-27 22:32:00,
2013-07-27 16:43:00,86.0,50.0,29.65,NE,34,4.0,8.0,29,0.00,,,0.00,,2013-07-27 22:43:00,
2013-07-27 16:53:00,87.0,48.0,29.64,NE,34,3.0,8.0,26,0.00,,,0.00,,2013-07-27 22:53:00,
2013-07-27 17:02:00,87.0,48.0,29.64,NE,34,3.0,8.0,26,0.00,,,0.00,,2013-07-27 23:02:00,
2013-07-27 17:12:00,88.0,47.0,29.64,West,273,8.0,17.0,24,0.00,,,0.00,,2013-07-27 23:12:00,
2013-07-27 17:22:00,87.0,47.0,29.64,West,272,7.0,13.0,25,0.00,,,0.00,,2013-07-27 23:22:00,
2013-07-27 17:32:00,87.0,47.0,29.64,West,272,7.0,13.0,25,0.00,,,0.00,,2013-07-27 23:32:00,
2013-07-27 17:44:00,88.0,48.0,29.64,West,273,4.0,14.0,25,0.00,,,0.00,,2013-07-27 23:44:00,
2013-07-27 17:52:00,87.0,47.0,29.63,West,270,7.0,12.0,25,0.00,,,0.00,,2013-07-27 23:52:00,
2013-07-27 18:02:00,87.0,47.0,29.63,West,270,7.0,12.0,25,0.00,,,0.00,,2013-07-28 00:02:00,
2013-07-27 18:12:00,86.0,46.0,29.63,West,270,5.0,11.0,25,0.00,,,0.00,,2013-07-28 00:12:00,
2013-07-27 18:22:00,86.0,46.0,29.63,West,270,2.0,7.0,25,0.00,,,0.00,,2013-07-28 00:22:00,
2013-07-27 18:32:00,86.0,46.0,29.63,West,270,2.0,7.0,25,0.00,,,0.00,,2013-07-28 00:32:00,
2013-07-27 18:44:00,85.0,45.0,29.63,West,270,3.0,8.0,25,0.00,,,0.00,,2013-07-28 00:44:00,
2013-07-27 18:53:00,84.0,45.0,29.63,West,270,1.0,10.0,26,0.00,,,0.00,,2013-07-28 00:53:00,
2013-07-27 19:02:00,84.0,45.0,29.63,West,270,1.0,10.0,26,0.00,,,0.00,,2013-07-28 01:02:00,
2013-07-27 19:12:00,84.0,46.0,29.63,West,270,3.0,7.0,27,0.00,,,0.00,,2013-07-28 01:12:00,
2013-07-27 19:22:00,83.0,47.0,29.63,West,270,0.0,5.0,28,0.00,,,0.00,,2013-07-28 01:22:00,
2013-07-27 19:32:00,83.0,47.0,29.63,West,270,0.0,5.0,28,0.00,,,0.00,,2013-07-28 01:32:00,
2013-07-27 19:43:00,83.0,47.0,29.63,West,270,0.0,3.0,28,0.00,,,0.00,,2013-07-28 01:43:00,
2013-07-27 19:53:00,83.0,47.0,29.63,West,270,0.0,0.0,28,0.00,,,0.00,,2013-07-28 01:53:00,
2013-07-27 20:02:00,83.0,47.0,29.63,West,270,0.0,0.0,28,0.00,,,0.00,,2013-07-28 02:02:00,
2013-07-27 20:12:00,82.0,48.0,29.64,West,270,0.0,2.0,31,0.00,,,0.00,,2013-07-28 02:12:00,
2013-07-27 20:22:00,81.0,47.0,29.64,West,270,1.0,4.0,31,0.00,,,0.00,,2013-07-28 02:22:00,
2013-07-27 20:32:00,81.0,47.0,29.64,West,270,1.0,4.0,31,0.00,,,0.00,,2013-07-28 02:32:00,
2013-07-27 20:42:00,81.0,46.0,29.64,West,269,3.0,9.0,29,0.00,,,0.00,,2013-07-28 02:42:00,
2013-07-27 20:53:00,80.0,46.0,29.64,West,265,0.0,4.0,30,0.00,,,0.00,,2013-07-28 02:53:00,
2013-07-27 21:12:00,80.0,46.0,29.64,West,265,0.0,0.0,30,0.00,,,0.00,,2013-07-28 03:12:00,
2013-07-27 21:22:00,78.0,47.0,29.64,West,265,0.0,1.0,33,0.00,,,0.00,,2013-07-28 03:22:00,
2013-07-27 21:32:00,78.0,47.0,29.64,West,265,0.0,1.0,33,0.00,,,0.00,,2013-07-28 03:32:00,
2013-07-27 21:42:00,79.0,47.0,29.65,West,265,0.0,3.0,32,0.00,,,0.00,,2013-07-28 03:42:00,
2013-07-27 21:52:00,79.0,45.0,29.65,West,265,0.0,2.0,30,0.00,,,0.00,,2013-07-28 03:52:00,
2013-07-27 22:02:00,79.0,45.0,29.65,West,265,0.0,2.0,30,0.00,,,0.00,,2013-07-28 04:02:00,
2013-07-27 22:12:00,79.0,45.0,29.66,West,265,0.0,4.0,30,0.00,,,0.00,,2013-07-28 04:12:00,
2013-07-27 22:22:00,77.0,48.0,29.67,SSW,193,6.0,16.0,36,0.00,,,0.00,,2013-07-28 04:22:00,
2013-07-27 22:32:00,77.0,48.0,29.67,SSW,193,6.0,16.0,36,0.00,,,0.00,,2013-07-28 04:32:00,
2013-07-27 22:43:00,76.0,48.0,29.67,South,188,6.0,10.0,37,0.00,,,0.00,,2013-07-28 04:43:00,
2013-07-27 22:53:00,76.0,49.0,29.68,South,188,3.0,10.0,38,0.00,,,0.00,,2013-07-28 04:53:00,
2013-07-27 23:02:00,76.0,49.0,29.68,South,188,3.0,10.0,38,0.00,,,0.00,,2013-07-28 05:02:00,
2013-07-27 23:12:00,76.0,48.0,29.68,South,188,3.0,9.0,37,0.00,,,0.00,,2013-07-28 05:12:00,
2013-07-27 23:22:00,76.0,49.0,29.68,South,188,0.0,5.0,39,0.00,,,0.00,,2013-07-28 05:22:00,
2013-07-27 23:32:00,76.0,49.0,29.68,South,188,0.0,5.0,39,0.00,,,0.00,,2013-07-28 05:32:00,
2013-07-27 23:43:00,75.0,48.0,29.68,South,188,0.0,1.0,39,0.00,,,0.00,,2013-07-28 05:43:00,
2013-07-27 23:52:00,74.0,48.0,29.68,South,188,0.0,1.0,40,0.00,,,0.00,,2013-07-28 05:52:00,